sensor_id;sensor_type;location;lat;lon;timestamp;P1;durP1;ratioP1;P2;durP2;ratioP2
1366;SDS011;16877;48.810;9.282;2023-04-12T00:00:27;5.73;;;2.00;;
1366;SDS011;16877;48.810;9.282;2023-04-12T00:02:55;5.13;;;2.50;;
1366;SDS011;16877;48.810;9.282;2023-04-12T00:05:23;3.43;;;1.70;;
1366;SDS011;16877;48.810;9.282;2023-04-12T00:07:51;5.87;;;2.40;;
1366;SDS011;16877;48.810;9.282;2023-04-12T00:10:19;3.63;;;2.13;;
1366;SDS011;16877;48.810;9.282;2023-04-12T00:12:46;6.77;;;3.00;;
1366;SDS011;16877;48.810;9.282;2023-04-12T00:15:15;5.00;;;2.40;;
1366;SDS011;16877;48.810;9.282;2023-04-12T00:17:47;3.97;;;2.10;;
1366;SDS011;16877;48.810;9.282;2023-04-12T00:20:14;5.43;;;2.30;;
1366;SDS011;16877;48.810;9.282;2023-04-12T00:22:42;7.77;;;3.23;;
1366;SDS011;16877;48.810;9.282;2023-04-12T00:25:10;6.43;;;2.97;;
1366;SDS011;16877;48.810;9.282;2023-04-12T00:27:38;4.57;;;2.60;;
1366;SDS011;16877;48.810;9.282;2023-04-12T00:30:06;5.40;;;2.40;;
1366;SDS011;16877;48.810;9.282;2023-04-12T00:32:37;5.10;;;2.90;;
1366;SDS011;16877;48.810;9.282;2023-04-12T00:35:05;3.80;;;2.17;;
1366;SDS011;16877;48.810;9.282;2023-04-12T00:37:34;5.53;;;2.60;;
1366;SDS011;16877;48.810;9.282;2023-04-12T00:40:02;5.67;;;3.10;;
1366;SDS011;16877;48.810;9.282;2023-04-12T00:42:43;4.67;;;2.30;;
1366;SDS011;16877;48.810;9.282;2023-04-12T00:45:12;5.67;;;3.00;;
1366;SDS011;16877;48.810;9.282;2023-04-12T00:47:41;4.17;;;2.53;;
1366;SDS011;16877;48.810;9.282;2023-04-12T00:50:10;5.03;;;2.90;;
1366;SDS011;16877;48.810;9.282;2023-04-12T00:52:37;4.33;;;2.90;;
1366;SDS011;16877;48.810;9.282;2023-04-12T00:55:06;3.30;;;2.40;;
1366;SDS011;16877;48.810;9.282;2023-04-12T00:57:35;4.67;;;2.50;;
1366;SDS011;16877;48.810;9.282;2023-04-12T01:00:03;5.00;;;2.70;;
1366;SDS011;16877;48.810;9.282;2023-04-12T01:02:32;5.30;;;2.60;;
1366;SDS011;16877;48.810;9.282;2023-04-12T01:05:05;4.30;;;2.67;;
1366;SDS011;16877;48.810;9.282;2023-04-12T01:07:39;6.00;;;2.70;;
1366;SDS011;16877;48.810;9.282;2023-04-12T01:10:19;6.17;;;2.00;;
1366;SDS011;16877;48.810;9.282;2023-04-12T01:12:58;4.07;;;2.27;;
1366;SDS011;16877;48.810;9.282;2023-04-12T01:15:36;4.13;;;2.20;;
1366;SDS011;16877;48.810;9.282;2023-04-12T01:18:08;6.53;;;3.07;;
1366;SDS011;16877;48.810;9.282;2023-04-12T01:20:42;3.90;;;2.37;;
1366;SDS011;16877;48.810;9.282;2023-04-12T01:23:33;4.43;;;2.60;;
1366;SDS011;16877;48.810;9.282;2023-04-12T01:26:20;5.20;;;2.40;;
1366;SDS011;16877;48.810;9.282;2023-04-12T01:29:00;5.07;;;2.27;;
1366;SDS011;16877;48.810;9.282;2023-04-12T01:31:30;6.10;;;2.20;;
1366;SDS011;16877;48.810;9.282;2023-04-12T01:34:00;5.27;;;2.40;;
1366;SDS011;16877;48.810;9.282;2023-04-12T01:36:29;4.50;;;2.50;;
1366;SDS011;16877;48.810;9.282;2023-04-12T01:38:58;4.70;;;2.73;;
1366;SDS011;16877;48.810;9.282;2023-04-12T01:41:27;4.30;;;2.60;;
1366;SDS011;16877;48.810;9.282;2023-04-12T01:43:56;4.80;;;2.37;;
1366;SDS011;16877;48.810;9.282;2023-04-12T01:46:25;5.50;;;2.23;;
1366;SDS011;16877;48.810;9.282;2023-04-12T01:48:52;4.30;;;1.90;;
1366;SDS011;16877;48.810;9.282;2023-04-12T01:51:34;6.87;;;2.53;;
1366;SDS011;16877;48.810;9.282;2023-04-12T01:54:07;4.20;;;2.53;;
1366;SDS011;16877;48.810;9.282;2023-04-12T01:56:37;4.80;;;2.40;;
1366;SDS011;16877;48.810;9.282;2023-04-12T01:59:07;5.63;;;2.40;;
1366;SDS011;16877;48.810;9.282;2023-04-12T02:01:38;4.87;;;2.40;;
1366;SDS011;16877;48.810;9.282;2023-04-12T02:04:06;5.57;;;1.90;;
1366;SDS011;16877;48.810;9.282;2023-04-12T02:06:35;3.90;;;2.10;;
1366;SDS011;16877;48.810;9.282;2023-04-12T02:09:04;4.87;;;1.80;;
1366;SDS011;16877;48.810;9.282;2023-04-12T02:11:32;6.70;;;2.40;;
1366;SDS011;16877;48.810;9.282;2023-04-12T02:13:59;3.40;;;2.00;;
1366;SDS011;16877;48.810;9.282;2023-04-12T02:16:27;4.50;;;2.30;;
1366;SDS011;16877;48.810;9.282;2023-04-12T02:18:58;4.37;;;2.03;;
1366;SDS011;16877;48.810;9.282;2023-04-12T02:21:25;5.27;;;2.70;;
1366;SDS011;16877;48.810;9.282;2023-04-12T02:23:53;5.87;;;2.33;;
1366;SDS011;16877;48.810;9.282;2023-04-12T02:26:20;4.57;;;2.23;;
1366;SDS011;16877;48.810;9.282;2023-04-12T02:28:48;4.00;;;2.53;;
1366;SDS011;16877;48.810;9.282;2023-04-12T02:31:16;4.40;;;2.37;;
1366;SDS011;16877;48.810;9.282;2023-04-12T02:33:44;4.63;;;2.30;;
1366;SDS011;16877;48.810;9.282;2023-04-12T02:36:13;3.30;;;2.00;;
1366;SDS011;16877;48.810;9.282;2023-04-12T02:38:42;4.90;;;2.47;;
1366;SDS011;16877;48.810;9.282;2023-04-12T02:41:15;4.67;;;2.20;;
1366;SDS011;16877;48.810;9.282;2023-04-12T02:43:42;4.93;;;1.97;;
1366;SDS011;16877;48.810;9.282;2023-04-12T02:46:13;3.80;;;1.73;;
1366;SDS011;16877;48.810;9.282;2023-04-12T02:48:43;2.90;;;1.73;;
1366;SDS011;16877;48.810;9.282;2023-04-12T02:51:13;3.20;;;1.73;;
1366;SDS011;16877;48.810;9.282;2023-04-12T02:53:40;4.47;;;2.00;;
1366;SDS011;16877;48.810;9.282;2023-04-12T02:56:08;3.40;;;1.80;;
1366;SDS011;16877;48.810;9.282;2023-04-12T02:58:36;3.13;;;1.40;;
1366;SDS011;16877;48.810;9.282;2023-04-12T03:01:04;4.00;;;1.93;;
1366;SDS011;16877;48.810;9.282;2023-04-12T03:03:32;5.77;;;2.30;;
1366;SDS011;16877;48.810;9.282;2023-04-12T03:06:00;5.23;;;2.17;;
1366;SDS011;16877;48.810;9.282;2023-04-12T03:08:29;5.63;;;1.73;;
1366;SDS011;16877;48.810;9.282;2023-04-12T03:10:57;5.00;;;1.90;;
1366;SDS011;16877;48.810;9.282;2023-04-12T03:13:24;3.83;;;1.60;;
1366;SDS011;16877;48.810;9.282;2023-04-12T03:15:53;3.13;;;2.10;;
1366;SDS011;16877;48.810;9.282;2023-04-12T03:18:22;2.87;;;1.53;;
1366;SDS011;16877;48.810;9.282;2023-04-12T03:20:50;3.13;;;1.90;;
1366;SDS011;16877;48.810;9.282;2023-04-12T03:23:26;2.47;;;1.40;;
1366;SDS011;16877;48.810;9.282;2023-04-12T03:25:56;4.23;;;1.90;;
1366;SDS011;16877;48.810;9.282;2023-04-12T03:28:24;3.50;;;1.77;;
1366;SDS011;16877;48.810;9.282;2023-04-12T03:30:51;3.00;;;1.27;;
1366;SDS011;16877;48.810;9.282;2023-04-12T03:33:18;3.53;;;1.67;;
1366;SDS011;16877;48.810;9.282;2023-04-12T03:35:46;4.50;;;2.10;;
1366;SDS011;16877;48.810;9.282;2023-04-12T03:38:13;2.90;;;1.47;;
1366;SDS011;16877;48.810;9.282;2023-04-12T03:40:41;2.37;;;1.30;;
1366;SDS011;16877;48.810;9.282;2023-04-12T03:43:10;4.70;;;1.47;;
1366;SDS011;16877;48.810;9.282;2023-04-12T03:45:39;4.10;;;1.73;;
1366;SDS011;16877;48.810;9.282;2023-04-12T03:48:08;3.23;;;1.50;;
1366;SDS011;16877;48.810;9.282;2023-04-12T03:50:36;2.30;;;1.30;;
1366;SDS011;16877;48.810;9.282;2023-04-12T03:53:08;3.20;;;1.70;;
1366;SDS011;16877;48.810;9.282;2023-04-12T03:55:35;3.53;;;1.30;;
1366;SDS011;16877;48.810;9.282;2023-04-12T03:58:02;3.17;;;1.50;;
1366;SDS011;16877;48.810;9.282;2023-04-12T04:00:31;3.00;;;1.50;;
1366;SDS011;16877;48.810;9.282;2023-04-12T04:02:58;3.83;;;1.77;;
1366;SDS011;16877;48.810;9.282;2023-04-12T04:05:27;2.70;;;1.13;;
1366;SDS011;16877;48.810;9.282;2023-04-12T04:07:54;3.33;;;1.30;;
1366;SDS011;16877;48.810;9.282;2023-04-12T04:10:24;2.30;;;1.20;;
1366;SDS011;16877;48.810;9.282;2023-04-12T04:12:52;3.87;;;1.30;;
1366;SDS011;16877;48.810;9.282;2023-04-12T04:15:19;2.27;;;1.23;;
1366;SDS011;16877;48.810;9.282;2023-04-12T04:17:48;3.50;;;1.63;;
1366;SDS011;16877;48.810;9.282;2023-04-12T04:20:16;3.33;;;1.43;;
1366;SDS011;16877;48.810;9.282;2023-04-12T04:22:43;2.83;;;1.40;;
1366;SDS011;16877;48.810;9.282;2023-04-12T04:25:12;3.03;;;1.40;;
1366;SDS011;16877;48.810;9.282;2023-04-12T04:27:40;3.50;;;1.40;;
1366;SDS011;16877;48.810;9.282;2023-04-12T04:30:09;2.67;;;1.47;;
1366;SDS011;16877;48.810;9.282;2023-04-12T04:32:39;3.00;;;1.50;;
1366;SDS011;16877;48.810;9.282;2023-04-12T04:35:09;2.93;;;1.50;;
1366;SDS011;16877;48.810;9.282;2023-04-12T04:37:39;3.13;;;1.50;;
1366;SDS011;16877;48.810;9.282;2023-04-12T04:40:08;3.10;;;1.77;;
1366;SDS011;16877;48.810;9.282;2023-04-12T04:42:36;2.70;;;1.60;;
1366;SDS011;16877;48.810;9.282;2023-04-12T04:45:04;3.00;;;1.10;;
1366;SDS011;16877;48.810;9.282;2023-04-12T04:47:37;3.23;;;1.23;;
1366;SDS011;16877;48.810;9.282;2023-04-12T04:50:06;1.90;;;0.83;;
1366;SDS011;16877;48.810;9.282;2023-04-12T04:52:36;2.00;;;0.93;;
1366;SDS011;16877;48.810;9.282;2023-04-12T04:55:15;2.40;;;1.23;;
1366;SDS011;16877;48.810;9.282;2023-04-12T04:57:50;2.90;;;1.40;;
1366;SDS011;16877;48.810;9.282;2023-04-12T05:00:18;2.40;;;1.10;;
1366;SDS011;16877;48.810;9.282;2023-04-12T05:02:50;3.10;;;1.20;;
1366;SDS011;16877;48.810;9.282;2023-04-12T05:05:24;2.83;;;1.00;;
1366;SDS011;16877;48.810;9.282;2023-04-12T05:08:04;3.70;;;1.43;;
1366;SDS011;16877;48.810;9.282;2023-04-12T05:10:33;2.17;;;0.90;;
1366;SDS011;16877;48.810;9.282;2023-04-12T05:13:00;2.27;;;1.07;;
1366;SDS011;16877;48.810;9.282;2023-04-12T05:15:29;2.50;;;1.20;;
1366;SDS011;16877;48.810;9.282;2023-04-12T05:17:56;2.37;;;1.10;;
1366;SDS011;16877;48.810;9.282;2023-04-12T05:20:30;2.00;;;0.97;;
1366;SDS011;16877;48.810;9.282;2023-04-12T05:22:59;2.60;;;1.20;;
1366;SDS011;16877;48.810;9.282;2023-04-12T05:25:33;2.20;;;1.00;;
1366;SDS011;16877;48.810;9.282;2023-04-12T05:28:04;3.17;;;1.60;;
1366;SDS011;16877;48.810;9.282;2023-04-12T05:30:38;2.60;;;1.10;;
1366;SDS011;16877;48.810;9.282;2023-04-12T05:33:15;2.27;;;0.93;;
1366;SDS011;16877;48.810;9.282;2023-04-12T05:35:49;2.77;;;1.50;;
1366;SDS011;16877;48.810;9.282;2023-04-12T05:38:35;3.43;;;1.20;;
1366;SDS011;16877;48.810;9.282;2023-04-12T05:41:06;2.47;;;1.30;;
1366;SDS011;16877;48.810;9.282;2023-04-12T05:43:34;3.10;;;1.60;;
1366;SDS011;16877;48.810;9.282;2023-04-12T05:46:05;2.83;;;0.90;;
1366;SDS011;16877;48.810;9.282;2023-04-12T05:48:35;2.47;;;1.27;;
1366;SDS011;16877;48.810;9.282;2023-04-12T05:51:09;3.57;;;1.57;;
1366;SDS011;16877;48.810;9.282;2023-04-12T05:53:40;4.50;;;1.63;;
1366;SDS011;16877;48.810;9.282;2023-04-12T05:56:13;3.03;;;1.43;;
1366;SDS011;16877;48.810;9.282;2023-04-12T05:58:41;2.20;;;1.47;;
1366;SDS011;16877;48.810;9.282;2023-04-12T06:01:11;2.70;;;1.20;;
1366;SDS011;16877;48.810;9.282;2023-04-12T06:03:43;2.50;;;1.10;;
1366;SDS011;16877;48.810;9.282;2023-04-12T06:09:08;3.57;;;1.27;;
1366;SDS011;16877;48.810;9.282;2023-04-12T06:11:36;3.20;;;1.10;;
1366;SDS011;16877;48.810;9.282;2023-04-12T06:14:07;2.37;;;1.17;;
1366;SDS011;16877;48.810;9.282;2023-04-12T06:16:39;3.13;;;1.47;;
1366;SDS011;16877;48.810;9.282;2023-04-12T06:19:13;2.20;;;1.00;;
1366;SDS011;16877;48.810;9.282;2023-04-12T06:21:50;3.30;;;1.40;;
1366;SDS011;16877;48.810;9.282;2023-04-12T06:24:32;3.70;;;1.27;;
1366;SDS011;16877;48.810;9.282;2023-04-12T06:27:03;2.73;;;1.13;;
1366;SDS011;16877;48.810;9.282;2023-04-12T06:29:34;2.27;;;1.30;;
1366;SDS011;16877;48.810;9.282;2023-04-12T06:32:07;3.83;;;1.33;;
1366;SDS011;16877;48.810;9.282;2023-04-12T06:34:36;2.87;;;1.30;;
1366;SDS011;16877;48.810;9.282;2023-04-12T06:37:14;2.73;;;1.47;;
1366;SDS011;16877;48.810;9.282;2023-04-12T06:39:41;2.63;;;0.93;;
1366;SDS011;16877;48.810;9.282;2023-04-12T06:42:10;2.97;;;1.37;;
1366;SDS011;16877;48.810;9.282;2023-04-12T06:44:37;3.00;;;1.33;;
1366;SDS011;16877;48.810;9.282;2023-04-12T06:47:17;2.67;;;1.17;;
1366;SDS011;16877;48.810;9.282;2023-04-12T06:49:45;2.63;;;1.40;;
1366;SDS011;16877;48.810;9.282;2023-04-12T06:52:18;3.47;;;1.00;;
1366;SDS011;16877;48.810;9.282;2023-04-12T06:55:00;1.80;;;0.80;;
1366;SDS011;16877;48.810;9.282;2023-04-12T06:57:32;2.13;;;0.70;;
1366;SDS011;16877;48.810;9.282;2023-04-12T07:00:03;1.90;;;1.00;;
1366;SDS011;16877;48.810;9.282;2023-04-12T07:02:48;1.80;;;0.80;;
1366;SDS011;16877;48.810;9.282;2023-04-12T07:08:11;3.70;;;1.30;;
1366;SDS011;16877;48.810;9.282;2023-04-12T07:13:33;2.67;;;1.07;;
1366;SDS011;16877;48.810;9.282;2023-04-12T07:16:11;2.83;;;1.20;;
1366;SDS011;16877;48.810;9.282;2023-04-12T07:18:44;2.50;;;1.20;;
1366;SDS011;16877;48.810;9.282;2023-04-12T07:21:29;3.00;;;1.27;;
1366;SDS011;16877;48.810;9.282;2023-04-12T07:24:18;2.50;;;1.43;;
1366;SDS011;16877;48.810;9.282;2023-04-12T07:26:56;1.90;;;1.00;;
1366;SDS011;16877;48.810;9.282;2023-04-12T07:29:28;2.13;;;0.90;;
1366;SDS011;16877;48.810;9.282;2023-04-12T07:32:02;1.80;;;0.80;;
1366;SDS011;16877;48.810;9.282;2023-04-12T07:34:29;2.73;;;0.90;;
1366;SDS011;16877;48.810;9.282;2023-04-12T07:36:57;4.00;;;1.17;;
1366;SDS011;16877;48.810;9.282;2023-04-12T07:39:29;2.87;;;1.17;;
1366;SDS011;16877;48.810;9.282;2023-04-12T07:42:00;3.00;;;1.43;;
1366;SDS011;16877;48.810;9.282;2023-04-12T07:44:32;2.33;;;1.10;;
1366;SDS011;16877;48.810;9.282;2023-04-12T07:47:14;2.23;;;0.90;;
1366;SDS011;16877;48.810;9.282;2023-04-12T07:49:41;2.20;;;1.00;;
1366;SDS011;16877;48.810;9.282;2023-04-12T07:52:10;2.20;;;1.10;;
1366;SDS011;16877;48.810;9.282;2023-04-12T07:54:40;2.27;;;1.37;;
1366;SDS011;16877;48.810;9.282;2023-04-12T07:57:12;2.37;;;1.10;;
1366;SDS011;16877;48.810;9.282;2023-04-12T07:59:40;2.30;;;1.20;;
1366;SDS011;16877;48.810;9.282;2023-04-12T08:02:11;2.27;;;1.00;;
1366;SDS011;16877;48.810;9.282;2023-04-12T08:04:46;2.30;;;1.10;;
1366;SDS011;16877;48.810;9.282;2023-04-12T08:07:18;3.27;;;1.30;;
1366;SDS011;16877;48.810;9.282;2023-04-12T08:09:49;2.73;;;1.00;;
1366;SDS011;16877;48.810;9.282;2023-04-12T08:12:17;2.63;;;1.10;;
1366;SDS011;16877;48.810;9.282;2023-04-12T08:14:45;3.93;;;1.30;;
1366;SDS011;16877;48.810;9.282;2023-04-12T08:17:17;3.47;;;1.30;;
1366;SDS011;16877;48.810;9.282;2023-04-12T08:19:45;2.53;;;1.10;;
1366;SDS011;16877;48.810;9.282;2023-04-12T08:22:13;2.40;;;0.93;;
1366;SDS011;16877;48.810;9.282;2023-04-12T08:24:46;5.57;;;1.20;;
1366;SDS011;16877;48.810;9.282;2023-04-12T08:27:15;2.23;;;1.10;;
1366;SDS011;16877;48.810;9.282;2023-04-12T08:29:43;2.83;;;1.50;;
1366;SDS011;16877;48.810;9.282;2023-04-12T08:32:17;2.10;;;1.03;;
1366;SDS011;16877;48.810;9.282;2023-04-12T08:34:49;2.30;;;1.17;;
1366;SDS011;16877;48.810;9.282;2023-04-12T08:37:17;2.40;;;1.10;;
1366;SDS011;16877;48.810;9.282;2023-04-12T08:39:55;3.30;;;1.37;;
1366;SDS011;16877;48.810;9.282;2023-04-12T08:42:24;2.10;;;0.90;;
1366;SDS011;16877;48.810;9.282;2023-04-12T08:44:52;2.47;;;1.00;;
1366;SDS011;16877;48.810;9.282;2023-04-12T08:47:22;3.67;;;1.33;;
1366;SDS011;16877;48.810;9.282;2023-04-12T08:49:50;4.13;;;1.27;;
1366;SDS011;16877;48.810;9.282;2023-04-12T08:52:18;2.33;;;1.40;;
1366;SDS011;16877;48.810;9.282;2023-04-12T08:54:47;3.00;;;1.63;;
1366;SDS011;16877;48.810;9.282;2023-04-12T08:57:16;2.87;;;1.40;;
1366;SDS011;16877;48.810;9.282;2023-04-12T08:59:48;5.03;;;1.50;;
1366;SDS011;16877;48.810;9.282;2023-04-12T09:02:27;2.73;;;1.53;;
1366;SDS011;16877;48.810;9.282;2023-04-12T09:04:56;2.60;;;1.30;;
1366;SDS011;16877;48.810;9.282;2023-04-12T09:07:25;5.30;;;1.70;;
1366;SDS011;16877;48.810;9.282;2023-04-12T09:09:55;3.20;;;1.40;;
1366;SDS011;16877;48.810;9.282;2023-04-12T09:12:24;5.23;;;1.47;;
1366;SDS011;16877;48.810;9.282;2023-04-12T09:15:10;3.80;;;1.60;;
1366;SDS011;16877;48.810;9.282;2023-04-12T09:18:04;2.83;;;1.40;;
1366;SDS011;16877;48.810;9.282;2023-04-12T09:20:36;2.00;;;0.90;;
1366;SDS011;16877;48.810;9.282;2023-04-12T09:23:16;2.40;;;1.30;;
1366;SDS011;16877;48.810;9.282;2023-04-12T09:25:44;2.53;;;1.43;;
1366;SDS011;16877;48.810;9.282;2023-04-12T09:28:19;3.40;;;1.57;;
1366;SDS011;16877;48.810;9.282;2023-04-12T09:30:52;3.27;;;1.50;;
1366;SDS011;16877;48.810;9.282;2023-04-12T09:33:32;2.70;;;1.47;;
1366;SDS011;16877;48.810;9.282;2023-04-12T09:36:08;3.23;;;1.70;;
1366;SDS011;16877;48.810;9.282;2023-04-12T09:38:38;3.80;;;2.07;;
1366;SDS011;16877;48.810;9.282;2023-04-12T09:41:41;4.50;;;1.47;;
1366;SDS011;16877;48.810;9.282;2023-04-12T09:44:12;3.20;;;1.73;;
1366;SDS011;16877;48.810;9.282;2023-04-12T09:47:00;2.70;;;1.60;;
1366;SDS011;16877;48.810;9.282;2023-04-12T09:49:36;4.60;;;1.77;;
1366;SDS011;16877;48.810;9.282;2023-04-12T09:52:10;2.53;;;1.47;;
1366;SDS011;16877;48.810;9.282;2023-04-12T09:54:40;3.60;;;1.63;;
1366;SDS011;16877;48.810;9.282;2023-04-12T09:57:14;4.00;;;2.00;;
1366;SDS011;16877;48.810;9.282;2023-04-12T09:59:45;3.60;;;1.40;;
1366;SDS011;16877;48.810;9.282;2023-04-12T10:05:01;2.53;;;1.40;;
1366;SDS011;16877;48.810;9.282;2023-04-12T10:07:34;6.40;;;2.50;;
1366;SDS011;16877;48.810;9.282;2023-04-12T10:10:13;3.93;;;1.57;;
1366;SDS011;16877;48.810;9.282;2023-04-12T10:12:48;3.93;;;1.90;;
1366;SDS011;16877;48.810;9.282;2023-04-12T10:15:30;2.70;;;1.30;;
1366;SDS011;16877;48.810;9.282;2023-04-12T10:18:04;3.20;;;1.60;;
1366;SDS011;16877;48.810;9.282;2023-04-12T10:20:38;3.50;;;1.50;;
1366;SDS011;16877;48.810;9.282;2023-04-12T10:23:07;3.47;;;1.80;;
1366;SDS011;16877;48.810;9.282;2023-04-12T10:25:38;3.47;;;1.77;;
1366;SDS011;16877;48.810;9.282;2023-04-12T10:28:13;4.00;;;1.70;;
1366;SDS011;16877;48.810;9.282;2023-04-12T10:30:55;4.40;;;2.13;;
1366;SDS011;16877;48.810;9.282;2023-04-12T10:33:26;2.63;;;1.43;;
1366;SDS011;16877;48.810;9.282;2023-04-12T10:35:57;4.03;;;1.80;;
1366;SDS011;16877;48.810;9.282;2023-04-12T10:38:44;3.50;;;1.90;;
1366;SDS011;16877;48.810;9.282;2023-04-12T10:41:14;3.10;;;1.80;;
1366;SDS011;16877;48.810;9.282;2023-04-12T10:43:44;3.73;;;1.70;;
1366;SDS011;16877;48.810;9.282;2023-04-12T10:46:46;3.60;;;1.70;;
1366;SDS011;16877;48.810;9.282;2023-04-12T10:49:30;3.83;;;1.70;;
1366;SDS011;16877;48.810;9.282;2023-04-12T10:52:13;4.67;;;1.90;;
1366;SDS011;16877;48.810;9.282;2023-04-12T10:54:45;4.70;;;1.80;;
1366;SDS011;16877;48.810;9.282;2023-04-12T11:00:12;4.13;;;1.60;;
1366;SDS011;16877;48.810;9.282;2023-04-12T11:03:05;3.13;;;1.40;;
1366;SDS011;16877;48.810;9.282;2023-04-12T11:06:00;3.73;;;1.30;;
1366;SDS011;16877;48.810;9.282;2023-04-12T11:08:41;4.27;;;1.80;;
1366;SDS011;16877;48.810;9.282;2023-04-12T11:11:17;4.03;;;1.70;;
1366;SDS011;16877;48.810;9.282;2023-04-12T11:13:49;2.60;;;1.57;;
1366;SDS011;16877;48.810;9.282;2023-04-12T11:16:29;3.30;;;1.90;;
1366;SDS011;16877;48.810;9.282;2023-04-12T11:19:27;3.40;;;1.60;;
1366;SDS011;16877;48.810;9.282;2023-04-12T11:22:08;2.73;;;1.40;;
1366;SDS011;16877;48.810;9.282;2023-04-12T11:24:38;2.30;;;1.53;;
1366;SDS011;16877;48.810;9.282;2023-04-12T11:27:13;3.20;;;1.27;;
1366;SDS011;16877;48.810;9.282;2023-04-12T11:29:57;3.53;;;1.40;;
1366;SDS011;16877;48.810;9.282;2023-04-12T11:32:43;3.00;;;1.27;;
1366;SDS011;16877;48.810;9.282;2023-04-12T11:35:16;3.10;;;1.50;;
1366;SDS011;16877;48.810;9.282;2023-04-12T11:38:17;2.77;;;1.30;;
1366;SDS011;16877;48.810;9.282;2023-04-12T11:40:52;4.00;;;1.33;;
1366;SDS011;16877;48.810;9.282;2023-04-12T11:43:24;2.70;;;1.83;;
1366;SDS011;16877;48.810;9.282;2023-04-12T11:46:11;2.47;;;1.40;;
1366;SDS011;16877;48.810;9.282;2023-04-12T11:48:54;2.57;;;1.40;;
1366;SDS011;16877;48.810;9.282;2023-04-12T11:51:29;3.30;;;1.20;;
1366;SDS011;16877;48.810;9.282;2023-04-12T11:54:11;3.07;;;1.30;;
1366;SDS011;16877;48.810;9.282;2023-04-12T11:56:50;2.53;;;1.00;;
1366;SDS011;16877;48.810;9.282;2023-04-12T11:59:30;1.70;;;0.80;;
1366;SDS011;16877;48.810;9.282;2023-04-12T12:01:59;2.47;;;1.00;;
1366;SDS011;16877;48.810;9.282;2023-04-12T12:04:33;2.20;;;0.97;;
1366;SDS011;16877;48.810;9.282;2023-04-12T12:07:09;2.33;;;0.93;;
1366;SDS011;16877;48.810;9.282;2023-04-12T12:10:11;2.30;;;1.10;;
1366;SDS011;16877;48.810;9.282;2023-04-12T12:12:41;2.40;;;1.17;;
1366;SDS011;16877;48.810;9.282;2023-04-12T12:15:13;3.73;;;1.37;;
1366;SDS011;16877;48.810;9.282;2023-04-12T12:17:49;2.60;;;1.00;;
1366;SDS011;16877;48.810;9.282;2023-04-12T12:20:24;2.33;;;1.00;;
1366;SDS011;16877;48.810;9.282;2023-04-12T12:23:10;3.73;;;1.30;;
1366;SDS011;16877;48.810;9.282;2023-04-12T12:25:45;2.63;;;1.00;;
1366;SDS011;16877;48.810;9.282;2023-04-12T12:28:13;2.97;;;1.10;;
1366;SDS011;16877;48.810;9.282;2023-04-12T12:30:54;2.17;;;1.07;;
1366;SDS011;16877;48.810;9.282;2023-04-12T12:33:34;3.50;;;1.50;;
1366;SDS011;16877;48.810;9.282;2023-04-12T12:36:03;2.73;;;1.10;;
1366;SDS011;16877;48.810;9.282;2023-04-12T12:38:35;2.10;;;1.20;;
1366;SDS011;16877;48.810;9.282;2023-04-12T12:41:17;2.77;;;1.00;;
1366;SDS011;16877;48.810;9.282;2023-04-12T12:43:47;3.40;;;1.10;;
1366;SDS011;16877;48.810;9.282;2023-04-12T12:46:18;2.80;;;1.60;;
1366;SDS011;16877;48.810;9.282;2023-04-12T12:49:06;1.80;;;0.90;;
1366;SDS011;16877;48.810;9.282;2023-04-12T12:51:35;4.00;;;1.37;;
1366;SDS011;16877;48.810;9.282;2023-04-12T12:54:22;2.67;;;1.17;;
1366;SDS011;16877;48.810;9.282;2023-04-12T12:56:54;3.37;;;1.20;;
1366;SDS011;16877;48.810;9.282;2023-04-12T12:59:23;3.07;;;1.33;;
1366;SDS011;16877;48.810;9.282;2023-04-12T13:01:52;2.00;;;0.80;;
1366;SDS011;16877;48.810;9.282;2023-04-12T13:04:27;2.73;;;1.00;;
1366;SDS011;16877;48.810;9.282;2023-04-12T13:06:56;2.50;;;1.03;;
1366;SDS011;16877;48.810;9.282;2023-04-12T13:09:23;2.10;;;1.00;;
1366;SDS011;16877;48.810;9.282;2023-04-12T13:12:02;4.07;;;0.90;;
1366;SDS011;16877;48.810;9.282;2023-04-12T13:14:45;2.40;;;0.90;;
1366;SDS011;16877;48.810;9.282;2023-04-12T13:17:13;1.90;;;0.93;;
1366;SDS011;16877;48.810;9.282;2023-04-12T13:19:42;2.57;;;1.27;;
1366;SDS011;16877;48.810;9.282;2023-04-12T13:22:12;4.27;;;1.30;;
1366;SDS011;16877;48.810;9.282;2023-04-12T13:24:41;2.33;;;1.10;;
1366;SDS011;16877;48.810;9.282;2023-04-12T13:27:24;1.90;;;0.93;;
1366;SDS011;16877;48.810;9.282;2023-04-12T13:30:00;2.93;;;1.13;;
1366;SDS011;16877;48.810;9.282;2023-04-12T13:32:28;2.43;;;0.90;;
1366;SDS011;16877;48.810;9.282;2023-04-12T13:34:57;2.57;;;1.23;;
1366;SDS011;16877;48.810;9.282;2023-04-12T13:37:25;2.57;;;1.17;;
1366;SDS011;16877;48.810;9.282;2023-04-12T13:39:52;2.60;;;1.20;;
1366;SDS011;16877;48.810;9.282;2023-04-12T13:42:28;2.57;;;1.27;;
1366;SDS011;16877;48.810;9.282;2023-04-12T13:44:59;2.00;;;0.80;;
1366;SDS011;16877;48.810;9.282;2023-04-12T13:47:31;2.70;;;1.17;;
1366;SDS011;16877;48.810;9.282;2023-04-12T13:49:59;2.43;;;1.37;;
1366;SDS011;16877;48.810;9.282;2023-04-12T13:52:26;2.20;;;1.27;;
1366;SDS011;16877;48.810;9.282;2023-04-12T13:54:55;2.83;;;1.23;;
1366;SDS011;16877;48.810;9.282;2023-04-12T13:57:31;2.60;;;1.53;;
1366;SDS011;16877;48.810;9.282;2023-04-12T13:59:59;2.20;;;1.03;;
1366;SDS011;16877;48.810;9.282;2023-04-12T14:02:31;2.53;;;0.90;;
1366;SDS011;16877;48.810;9.282;2023-04-12T14:05:00;3.70;;;1.67;;
1366;SDS011;16877;48.810;9.282;2023-04-12T14:07:32;1.90;;;0.90;;
1366;SDS011;16877;48.810;9.282;2023-04-12T14:10:03;2.20;;;1.00;;
1366;SDS011;16877;48.810;9.282;2023-04-12T14:12:35;2.40;;;0.90;;
1366;SDS011;16877;48.810;9.282;2023-04-12T14:15:07;3.47;;;1.20;;
1366;SDS011;16877;48.810;9.282;2023-04-12T14:17:36;2.73;;;1.00;;
1366;SDS011;16877;48.810;9.282;2023-04-12T14:20:05;2.17;;;1.07;;
1366;SDS011;16877;48.810;9.282;2023-04-12T14:22:34;1.70;;;0.80;;
1366;SDS011;16877;48.810;9.282;2023-04-12T14:25:01;3.70;;;1.37;;
1366;SDS011;16877;48.810;9.282;2023-04-12T14:27:29;2.33;;;1.20;;
1366;SDS011;16877;48.810;9.282;2023-04-12T14:29:58;2.27;;;0.90;;
1366;SDS011;16877;48.810;9.282;2023-04-12T14:32:26;2.27;;;1.00;;
1366;SDS011;16877;48.810;9.282;2023-04-12T14:34:58;2.97;;;1.07;;
1366;SDS011;16877;48.810;9.282;2023-04-12T14:37:28;3.70;;;1.43;;
1366;SDS011;16877;48.810;9.282;2023-04-12T14:39:59;4.40;;;1.20;;
1366;SDS011;16877;48.810;9.282;2023-04-12T14:42:27;4.63;;;1.30;;
1366;SDS011;16877;48.810;9.282;2023-04-12T14:45:13;2.17;;;0.93;;
1366;SDS011;16877;48.810;9.282;2023-04-12T14:47:41;2.03;;;1.10;;
1366;SDS011;16877;48.810;9.282;2023-04-12T14:50:10;1.87;;;0.90;;
1366;SDS011;16877;48.810;9.282;2023-04-12T14:52:38;2.70;;;1.10;;
1366;SDS011;16877;48.810;9.282;2023-04-12T14:55:05;1.90;;;0.90;;
1366;SDS011;16877;48.810;9.282;2023-04-12T14:57:34;2.53;;;1.13;;
1366;SDS011;16877;48.810;9.282;2023-04-12T15:00:16;2.47;;;1.10;;
1366;SDS011;16877;48.810;9.282;2023-04-12T15:02:44;2.73;;;1.00;;
1366;SDS011;16877;48.810;9.282;2023-04-12T15:05:13;3.57;;;1.13;;
1366;SDS011;16877;48.810;9.282;2023-04-12T15:07:41;1.77;;;0.80;;
1366;SDS011;16877;48.810;9.282;2023-04-12T15:10:09;2.70;;;0.87;;
1366;SDS011;16877;48.810;9.282;2023-04-12T15:12:38;2.93;;;1.30;;
1366;SDS011;16877;48.810;9.282;2023-04-12T15:15:06;2.20;;;1.00;;
1366;SDS011;16877;48.810;9.282;2023-04-12T15:17:35;2.20;;;1.20;;
1366;SDS011;16877;48.810;9.282;2023-04-12T15:20:03;1.90;;;0.90;;
1366;SDS011;16877;48.810;9.282;2023-04-12T15:22:35;2.00;;;0.80;;
1366;SDS011;16877;48.810;9.282;2023-04-12T15:25:03;2.90;;;1.10;;
1366;SDS011;16877;48.810;9.282;2023-04-12T15:27:32;2.63;;;0.80;;
1366;SDS011;16877;48.810;9.282;2023-04-12T15:30:04;2.27;;;0.70;;
1366;SDS011;16877;48.810;9.282;2023-04-12T15:32:38;1.53;;;0.60;;
1366;SDS011;16877;48.810;9.282;2023-04-12T15:35:06;2.53;;;0.67;;
1366;SDS011;16877;48.810;9.282;2023-04-12T15:37:38;1.80;;;0.60;;
1366;SDS011;16877;48.810;9.282;2023-04-12T15:40:06;1.77;;;0.70;;
1366;SDS011;16877;48.810;9.282;2023-04-12T15:42:40;2.97;;;1.23;;
1366;SDS011;16877;48.810;9.282;2023-04-12T15:45:07;2.70;;;1.10;;